Estación Meteorológica Peña el Pijo (Robertgarden) [ 11/30/23 13:14:47 CET ]

Fecha Hora Presion(HPa) Temp (°C) Humedad % Rocio (°C) Viento ( m/s) Direccion Lluvia 1Hora(mm) Lluvia 24H(mm) LLuvia Total(mm)
2009-Sep-10 01:01:14 1018.100 13.3 70 8.0         355.86
2009-Sep-10 02:01:13 1018.400 12.1 74 7.6         355.86
2009-Sep-10 03:03:14 1017.900 11.1 77 7.2         355.86
2009-Sep-10 04:01:16 1017.600 10.4 81 7.3         355.86
2009-Sep-10 05:01:14 1017.900 9.9 83 7.1         355.86
2009-Sep-10 06:01:11 1017.600 9.3 84 6.7         355.86
2009-Sep-10 07:01:12 1017.500 8.6 86 6.4         355.86
2009-Sep-10 08:01:11 1017.900 8.1 87 6.1         355.86
2009-Sep-10 09:01:17 1017.900 10.9 87 8.8         355.86
2009-Sep-10 10:01:12 1017.900 17.3 63 10.2         355.86
2009-Sep-10 11:01:13 1018.100 23.3 37 7.7         355.86
2009-Sep-10 12:01:26 1018.000 25.3 21 1.3         355.86
2009-Sep-10 13:01:14 1017.900 27.8 19 1.9         355.86
2009-Sep-10 14:01:11 1017.700 28.8 17 0.8         355.86
2009-Sep-10 15:01:13 1017.100 28.1 22 4.2         355.86
2009-Sep-10 16:01:14 1016.900 27.6 25 5.6         355.86
2009-Sep-10 17:01:11 1016.400 26.8 29 7.2         355.86
2009-Sep-10 18:01:13 1016.100 25.2 29 5.9         355.86
2009-Sep-10 19:01:16 1016.200 24.1 30 5.5         355.86
2009-Sep-10 20:01:13 1016.600 21.0 38 6.2         355.86
2009-Sep-10 21:01:21 1017.100 18.9 44 6.3         355.86
2009-Sep-10 22:01:15 1017.500 15.9 53 6.3         355.86
2009-Sep-10 23:01:12 1017.600 14.4 60 6.8         355.86

Temperatura Máxima:28°    Temperatura Mínima:
Presión Máxima:1018.400 Hpa    Presión Mínima:1016.100 Hpa


Volver